createdAt,value
2018-09-12T00:05:05.429Z,6.90
2018-09-12T00:10:34.669Z,6.80
2018-09-12T00:16:04.051Z,5.80
2018-09-12T00:21:33.439Z,5.97
2018-09-12T00:27:02.636Z,5.90
2018-09-12T00:32:32.743Z,6.93
2018-09-12T00:38:02.014Z,6.07
2018-09-12T00:43:31.292Z,6.33
2018-09-12T00:49:00.482Z,6.33
2018-09-12T00:54:30.363Z,6.10
2018-09-12T01:00:00.644Z,6.47
2018-09-12T01:05:29.896Z,6.47
2018-09-12T01:10:59.106Z,6.37
2018-09-12T01:16:28.291Z,5.90
2018-09-12T01:21:57.529Z,6.10
2018-09-12T01:27:27.041Z,5.50
2018-09-12T01:32:57.353Z,5.77
2018-09-12T01:38:26.540Z,6.83
2018-09-12T01:43:55.759Z,5.73
2018-09-12T01:49:24.966Z,5.73
2018-09-12T01:54:54.164Z,6.20
2018-09-12T02:00:53.965Z,7.00
2018-09-12T02:06:23.251Z,5.97
2018-09-12T02:11:52.506Z,6.90
2018-09-12T02:17:21.775Z,7.43
2018-09-12T02:22:51.617Z,6.93
2018-09-12T02:28:20.828Z,5.70
2018-09-12T02:33:50.085Z,6.07
2018-09-12T02:39:19.279Z,6.50
2018-09-12T02:44:48.549Z,5.90
2018-09-12T02:50:17.832Z,6.70
2018-09-12T02:55:47.062Z,7.20
2018-09-12T03:01:16.327Z,8.50
2018-09-12T03:06:45.552Z,6.33
2018-09-12T03:12:15.164Z,23.70
2018-09-12T03:17:44.566Z,15.70
2018-09-12T03:23:13.831Z,6.90
2018-09-12T03:28:43.124Z,5.72
2018-09-12T03:34:12.517Z,6.20
2018-09-12T03:39:41.787Z,5.83
2018-09-12T03:45:11.196Z,5.55
2018-09-12T03:50:40.720Z,5.63
2018-09-12T03:56:10.112Z,6.03
2018-09-12T04:01:39.704Z,6.00
2018-09-12T04:07:08.988Z,5.47
2018-09-12T04:12:38.373Z,5.73
2018-09-12T04:18:08.272Z,6.50
2018-09-12T04:23:37.646Z,6.90
2018-09-12T04:29:06.989Z,6.23
2018-09-12T04:34:36.438Z,7.00
2018-09-12T04:40:06.973Z,5.87
2018-09-12T04:45:36.585Z,6.72
2018-09-12T04:51:05.964Z,7.13
2018-09-12T04:56:35.239Z,6.30
2018-09-12T05:02:04.491Z,5.87
2018-09-12T05:07:33.748Z,6.83
2018-09-12T05:13:02.971Z,7.17
2018-09-12T05:18:32.196Z,9.93
2018-09-12T05:24:01.500Z,8.08
2018-09-12T05:29:30.736Z,6.33
2018-09-12T05:34:59.935Z,6.70
2018-09-12T05:40:29.242Z,5.90
2018-09-12T05:45:58.447Z,6.37
2018-09-12T05:51:27.696Z,6.37
2018-09-12T05:56:56.927Z,7.25
2018-09-12T06:02:26.131Z,6.78
2018-09-12T06:07:56.476Z,6.80
2018-09-12T06:13:25.700Z,5.50
2018-09-12T06:18:55.098Z,5.93
2018-09-12T06:24:24.349Z,5.08
2018-09-12T06:29:53.608Z,5.20
2018-09-12T06:35:22.771Z,5.27
2018-09-12T06:40:53.055Z,5.60
2018-09-12T06:46:22.329Z,5.37
2018-09-12T06:51:51.552Z,5.00
2018-09-12T06:57:20.763Z,4.90
2018-09-12T07:02:50.151Z,4.70
2018-09-12T07:08:19.367Z,5.00
2018-09-12T07:13:49.732Z,4.40
2018-09-12T07:19:18.967Z,4.60
2018-09-12T07:24:48.283Z,4.67
2018-09-12T07:30:17.560Z,4.30
2018-09-12T07:35:46.763Z,3.83
2018-09-12T07:41:16.605Z,4.10
2018-09-12T07:46:45.945Z,4.27
2018-09-12T07:52:16.091Z,4.53
2018-09-12T07:57:45.527Z,4.20
2018-09-12T08:03:14.835Z,3.90
2018-09-12T08:08:44.148Z,4.23
2018-09-12T08:14:13.504Z,4.00
2018-09-12T08:19:42.858Z,4.17
2018-09-12T08:25:12.300Z,4.40
2018-09-12T08:30:41.783Z,4.10
2018-09-12T08:36:11.220Z,4.00
2018-09-12T08:41:40.632Z,3.80
2018-09-12T08:47:10.048Z,3.80
2018-09-12T08:52:39.693Z,5.47
2018-09-12T08:58:09.137Z,3.47
2018-09-12T09:03:38.632Z,4.53
2018-09-12T09:09:11.228Z,4.30
2018-09-12T09:14:40.651Z,4.10
2018-09-12T09:20:09.999Z,4.50
2018-09-12T09:25:39.328Z,3.90
2018-09-12T09:31:08.818Z,3.70
2018-09-12T09:36:38.179Z,3.43
2018-09-12T09:42:07.660Z,3.23
2018-09-12T09:47:37.057Z,3.37
2018-09-12T09:53:06.373Z,3.60
2018-09-12T09:58:35.716Z,3.23
2018-09-12T10:04:10.145Z,3.60
2018-09-12T10:09:39.512Z,3.50
2018-09-12T10:15:08.999Z,3.50
2018-09-12T10:20:38.439Z,4.23
2018-09-12T10:26:07.739Z,4.10
2018-09-12T10:31:37.041Z,4.57
2018-09-12T10:37:06.455Z,3.80
2018-09-12T10:42:36.869Z,3.37
2018-09-12T10:48:06.397Z,3.50
2018-09-12T10:53:35.684Z,3.87
2018-09-12T10:59:04.994Z,3.73
2018-09-12T11:04:34.317Z,3.20
2018-09-12T11:10:03.520Z,3.03
2018-09-12T11:15:32.788Z,3.37
2018-09-12T11:21:02.005Z,3.60
2018-09-12T11:26:31.429Z,3.50
2018-09-12T11:32:00.623Z,3.87
2018-09-12T11:37:29.964Z,3.50
2018-09-12T11:42:59.180Z,3.30
2018-09-12T11:48:28.409Z,3.17
2018-09-12T11:53:57.721Z,3.10
2018-09-12T11:59:26.956Z,3.20
2018-09-12T12:04:56.245Z,3.70
2018-09-12T12:10:25.448Z,3.17
2018-09-12T12:15:54.688Z,3.63
2018-09-12T12:21:23.934Z,3.60
2018-09-12T12:26:53.188Z,3.80
2018-09-12T12:32:22.415Z,3.17
2018-09-12T12:37:52.079Z,3.30
2018-09-12T12:43:21.291Z,3.83
2018-09-12T12:48:50.638Z,3.47
2018-09-12T12:54:19.851Z,3.13
2018-09-12T12:59:49.095Z,3.20
2018-09-12T13:05:18.325Z,3.20
2018-09-12T13:10:47.640Z,3.03
2018-09-12T13:16:17.012Z,3.60
2018-09-12T13:21:46.387Z,2.93
2018-09-12T13:27:15.619Z,3.10
2018-09-12T13:32:44.864Z,3.00
2018-09-12T13:38:14.043Z,6.07
2018-09-12T13:43:43.336Z,3.23
2018-09-12T13:49:12.649Z,3.17
2018-09-12T13:54:41.909Z,3.33
2018-09-12T14:00:11.285Z,3.23
2018-09-12T14:05:40.650Z,3.27
2018-09-12T14:11:09.955Z,3.23
2018-09-12T14:16:39.282Z,3.03
2018-09-12T14:22:09.005Z,3.20
2018-09-12T14:27:38.315Z,2.97
2018-09-12T14:33:07.938Z,3.00
2018-09-12T14:38:37.254Z,2.93
2018-09-12T14:44:06.676Z,2.40
2018-09-12T14:49:36.053Z,2.63
2018-09-12T14:55:05.384Z,2.50
2018-09-12T15:00:34.730Z,2.93
2018-09-12T15:06:03.993Z,2.70
2018-09-12T15:11:33.265Z,2.90
2018-09-12T15:17:02.510Z,2.90
2018-09-12T15:22:35.628Z,2.90
2018-09-12T15:28:09.087Z,2.87
2018-09-12T15:33:38.718Z,3.47
2018-09-12T15:39:10.596Z,4.03
2018-09-12T15:44:40.216Z,3.40
2018-09-12T15:50:10.070Z,3.50
2018-09-12T15:55:41.653Z,3.50
2018-09-12T16:01:14.861Z,3.93
2018-09-12T16:06:44.506Z,4.03
2018-09-12T16:12:13.994Z,3.30
2018-09-12T16:17:43.839Z,3.10
2018-09-12T16:23:14.844Z,3.03
2018-09-12T16:28:44.311Z,3.27
2018-09-12T16:34:14.211Z,2.70
2018-09-12T16:39:43.556Z,3.70
2018-09-12T16:45:13.142Z,3.50
2018-09-12T16:50:42.881Z,3.47
2018-09-12T16:56:13.512Z,3.30
2018-09-12T17:01:42.906Z,3.50
2018-09-12T17:07:12.514Z,3.30
2018-09-12T17:12:41.964Z,3.30
2018-09-12T17:18:11.570Z,4.10
2018-09-12T17:23:41.186Z,4.80
2018-09-12T17:29:12.328Z,4.60
2018-09-12T17:34:42.057Z,3.50
2018-09-12T17:40:11.608Z,4.27
2018-09-12T17:45:41.153Z,6.67
2018-09-12T17:51:10.826Z,6.03
2018-09-12T17:56:41.385Z,5.90
2018-09-12T18:02:11.001Z,6.67
2018-09-12T18:07:40.699Z,7.30
2018-09-12T18:13:12.112Z,10.83
2018-09-12T18:18:41.705Z,7.20
2018-09-12T18:24:11.170Z,7.63
2018-09-12T18:29:40.747Z,7.27
2018-09-12T18:35:10.242Z,7.50
2018-09-12T18:40:39.673Z,8.30
2018-09-12T18:46:09.229Z,10.23
2018-09-12T18:51:39.072Z,7.30
2018-09-12T18:57:08.487Z,6.90
2018-09-12T19:02:37.900Z,6.63
2018-09-12T19:08:07.394Z,8.60
2018-09-12T19:13:37.068Z,8.03
2018-09-12T19:19:06.393Z,7.03
2018-09-12T19:24:35.869Z,7.60
2018-09-12T19:30:05.209Z,7.30
2018-09-12T19:35:34.480Z,8.20
2018-09-12T19:41:08.386Z,7.93
2018-09-12T19:46:38.033Z,9.03
2018-09-12T19:52:07.824Z,7.87
2018-09-12T19:57:37.572Z,8.80
2018-09-12T20:03:07.607Z,9.97
2018-09-12T20:08:37.772Z,8.10
2018-09-12T20:14:08.154Z,8.13
2018-09-12T20:19:38.273Z,10.80
2018-09-12T20:25:07.758Z,9.37
2018-09-12T20:30:37.181Z,8.53
2018-09-12T20:36:07.518Z,8.50
2018-09-12T20:41:37.325Z,8.50
2018-09-12T20:47:06.946Z,8.10
2018-09-12T20:52:36.410Z,8.37
2018-09-12T20:58:05.791Z,8.53
2018-09-12T21:03:35.908Z,8.43
2018-09-12T21:09:09.351Z,8.27
2018-09-12T21:14:39.091Z,8.17
2018-09-12T21:20:08.608Z,7.92
2018-09-12T21:25:38.333Z,8.00
2018-09-12T21:31:08.087Z,8.40
2018-09-12T21:36:37.625Z,7.87
2018-09-12T21:42:06.944Z,8.53
2018-09-12T21:47:36.378Z,8.13
2018-09-12T21:53:05.621Z,8.15
2018-09-12T21:58:34.917Z,7.63
2018-09-12T22:04:04.123Z,7.40
2018-09-12T22:09:33.343Z,7.87
2018-09-12T22:15:02.597Z,7.60
2018-09-12T22:20:31.894Z,7.63
2018-09-12T22:26:01.130Z,8.13
2018-09-12T22:31:30.347Z,7.47
2018-09-12T22:36:59.677Z,8.03
2018-09-12T22:42:28.971Z,6.72
2018-09-12T22:47:58.172Z,7.87
2018-09-12T22:53:27.480Z,7.85
2018-09-12T22:58:56.704Z,7.93
2018-09-12T23:04:25.935Z,7.85
2018-09-12T23:09:55.183Z,7.42
2018-09-12T23:15:24.432Z,6.87
2018-09-12T23:20:53.700Z,10.37
2018-09-12T23:26:22.928Z,7.47
2018-09-12T23:31:52.120Z,8.20
2018-09-12T23:37:21.295Z,7.55
2018-09-12T23:42:50.551Z,7.40
2018-09-12T23:48:19.755Z,7.50
2018-09-12T23:53:49.053Z,7.33
2018-09-12T23:59:18.361Z,8.20
